sensor_id;sensor_type;location;lat;lon;timestamp;P1;durP1;ratioP1;P2;durP2;ratioP2
3259;SDS011;22469;48.150;14.004;2022-11-20T00:01:20;53.53;;;30.10;;
3259;SDS011;22469;48.150;14.004;2022-11-20T00:03:51;53.87;;;28.37;;
3259;SDS011;22469;48.150;14.004;2022-11-20T00:06:21;55.73;;;30.50;;
3259;SDS011;22469;48.150;14.004;2022-11-20T00:08:49;58.50;;;29.83;;
3259;SDS011;22469;48.150;14.004;2022-11-20T00:11:17;59.00;;;30.67;;
3259;SDS011;22469;48.150;14.004;2022-11-20T00:13:47;56.60;;;30.70;;
3259;SDS011;22469;48.150;14.004;2022-11-20T00:16:18;60.30;;;30.90;;
3259;SDS011;22469;48.150;14.004;2022-11-20T00:18:48;50.60;;;29.90;;
3259;SDS011;22469;48.150;14.004;2022-11-20T00:21:20;61.70;;;31.07;;
3259;SDS011;22469;48.150;14.004;2022-11-20T00:23:50;60.87;;;33.00;;
3259;SDS011;22469;48.150;14.004;2022-11-20T00:26:20;62.33;;;33.30;;
3259;SDS011;22469;48.150;14.004;2022-11-20T00:28:51;60.67;;;31.80;;
3259;SDS011;22469;48.150;14.004;2022-11-20T00:31:20;58.90;;;29.37;;
3259;SDS011;22469;48.150;14.004;2022-11-20T00:33:48;72.63;;;34.20;;
3259;SDS011;22469;48.150;14.004;2022-11-20T00:36:19;66.97;;;32.50;;
3259;SDS011;22469;48.150;14.004;2022-11-20T00:38:52;69.77;;;32.80;;
3259;SDS011;22469;48.150;14.004;2022-11-20T00:41:21;64.07;;;30.73;;
3259;SDS011;22469;48.150;14.004;2022-11-20T00:43:51;63.03;;;29.77;;
3259;SDS011;22469;48.150;14.004;2022-11-20T00:46:21;61.67;;;29.67;;
3259;SDS011;22469;48.150;14.004;2022-11-20T00:48:51;63.63;;;31.10;;
3259;SDS011;22469;48.150;14.004;2022-11-20T00:51:20;72.10;;;33.27;;
3259;SDS011;22469;48.150;14.004;2022-11-20T00:53:50;60.60;;;30.40;;
3259;SDS011;22469;48.150;14.004;2022-11-20T00:56:18;64.97;;;32.03;;
3259;SDS011;22469;48.150;14.004;2022-11-20T00:58:46;66.97;;;33.10;;
3259;SDS011;22469;48.150;14.004;2022-11-20T01:01:19;56.03;;;30.00;;
3259;SDS011;22469;48.150;14.004;2022-11-20T01:03:53;55.53;;;31.00;;
3259;SDS011;22469;48.150;14.004;2022-11-20T01:06:24;56.70;;;28.13;;
3259;SDS011;22469;48.150;14.004;2022-11-20T01:09:01;67.67;;;33.67;;
3259;SDS011;22469;48.150;14.004;2022-11-20T01:11:35;61.73;;;32.40;;
3259;SDS011;22469;48.150;14.004;2022-11-20T01:14:04;73.90;;;31.67;;
3259;SDS011;22469;48.150;14.004;2022-11-20T01:16:38;64.40;;;32.47;;
3259;SDS011;22469;48.150;14.004;2022-11-20T01:19:12;68.20;;;33.77;;
3259;SDS011;22469;48.150;14.004;2022-11-20T01:21:50;61.73;;;29.10;;
3259;SDS011;22469;48.150;14.004;2022-11-20T01:24:20;64.23;;;32.60;;
3259;SDS011;22469;48.150;14.004;2022-11-20T01:26:49;71.03;;;34.87;;
3259;SDS011;22469;48.150;14.004;2022-11-20T01:29:19;67.30;;;31.07;;
3259;SDS011;22469;48.150;14.004;2022-11-20T01:31:50;75.43;;;33.07;;
3259;SDS011;22469;48.150;14.004;2022-11-20T01:34:19;63.70;;;33.00;;
3259;SDS011;22469;48.150;14.004;2022-11-20T01:36:48;63.03;;;31.83;;
3259;SDS011;22469;48.150;14.004;2022-11-20T01:39:20;64.43;;;32.03;;
3259;SDS011;22469;48.150;14.004;2022-11-20T01:41:50;68.70;;;30.87;;
3259;SDS011;22469;48.150;14.004;2022-11-20T01:44:58;64.70;;;31.40;;
3259;SDS011;22469;48.150;14.004;2022-11-20T01:50:05;67.17;;;35.20;;
3259;SDS011;22469;48.150;14.004;2022-11-20T01:52:55;64.77;;;30.57;;
3259;SDS011;22469;48.150;14.004;2022-11-20T01:55:29;70.75;;;33.30;;
3259;SDS011;22469;48.150;14.004;2022-11-20T01:58:01;62.63;;;32.20;;
3259;SDS011;22469;48.150;14.004;2022-11-20T02:00:29;59.87;;;30.60;;
3259;SDS011;22469;48.150;14.004;2022-11-20T02:02:58;66.37;;;32.70;;
3259;SDS011;22469;48.150;14.004;2022-11-20T02:05:37;68.57;;;33.97;;
3259;SDS011;22469;48.150;14.004;2022-11-20T02:08:18;68.00;;;32.70;;
3259;SDS011;22469;48.150;14.004;2022-11-20T02:10:46;57.77;;;30.50;;
3259;SDS011;22469;48.150;14.004;2022-11-20T02:13:13;61.70;;;29.63;;
3259;SDS011;22469;48.150;14.004;2022-11-20T02:15:59;76.83;;;34.73;;
3259;SDS011;22469;48.150;14.004;2022-11-20T02:18:27;62.37;;;28.70;;
3259;SDS011;22469;48.150;14.004;2022-11-20T02:21:06;65.80;;;32.17;;
3259;SDS011;22469;48.150;14.004;2022-11-20T02:23:59;69.17;;;32.97;;
3259;SDS011;22469;48.150;14.004;2022-11-20T02:26:32;62.80;;;30.40;;
3259;SDS011;22469;48.150;14.004;2022-11-20T02:29:06;57.13;;;31.00;;
3259;SDS011;22469;48.150;14.004;2022-11-20T02:31:37;57.47;;;29.30;;
3259;SDS011;22469;48.150;14.004;2022-11-20T02:34:08;63.63;;;33.43;;
3259;SDS011;22469;48.150;14.004;2022-11-20T02:36:36;65.53;;;33.00;;
3259;SDS011;22469;48.150;14.004;2022-11-20T02:39:07;66.23;;;31.63;;
3259;SDS011;22469;48.150;14.004;2022-11-20T02:41:36;61.80;;;30.00;;
3259;SDS011;22469;48.150;14.004;2022-11-20T02:44:05;59.60;;;30.73;;
3259;SDS011;22469;48.150;14.004;2022-11-20T02:46:33;66.10;;;34.43;;
3259;SDS011;22469;48.150;14.004;2022-11-20T02:49:02;63.97;;;31.50;;
3259;SDS011;22469;48.150;14.004;2022-11-20T02:51:31;62.67;;;31.80;;
3259;SDS011;22469;48.150;14.004;2022-11-20T02:53:58;69.33;;;32.00;;
3259;SDS011;22469;48.150;14.004;2022-11-20T02:56:25;67.57;;;31.90;;
3259;SDS011;22469;48.150;14.004;2022-11-20T02:58:53;58.47;;;29.90;;
3259;SDS011;22469;48.150;14.004;2022-11-20T03:01:20;65.60;;;32.30;;
3259;SDS011;22469;48.150;14.004;2022-11-20T03:03:48;62.93;;;30.77;;
3259;SDS011;22469;48.150;14.004;2022-11-20T03:06:16;61.00;;;32.07;;
3259;SDS011;22469;48.150;14.004;2022-11-20T03:08:43;60.80;;;30.07;;
3259;SDS011;22469;48.150;14.004;2022-11-20T03:11:10;54.97;;;29.50;;
3259;SDS011;22469;48.150;14.004;2022-11-20T03:13:37;56.60;;;29.57;;
3259;SDS011;22469;48.150;14.004;2022-11-20T03:16:08;61.10;;;30.33;;
3259;SDS011;22469;48.150;14.004;2022-11-20T03:18:39;61.60;;;29.70;;
3259;SDS011;22469;48.150;14.004;2022-11-20T03:21:08;56.07;;;30.87;;
3259;SDS011;22469;48.150;14.004;2022-11-20T03:23:37;57.67;;;28.73;;
3259;SDS011;22469;48.150;14.004;2022-11-20T03:28:41;56.47;;;28.63;;
3259;SDS011;22469;48.150;14.004;2022-11-20T03:31:17;61.77;;;30.40;;
3259;SDS011;22469;48.150;14.004;2022-11-20T03:33:51;58.63;;;30.47;;
3259;SDS011;22469;48.150;14.004;2022-11-20T03:36:19;63.90;;;29.57;;
3259;SDS011;22469;48.150;14.004;2022-11-20T03:38:47;56.77;;;29.87;;
3259;SDS011;22469;48.150;14.004;2022-11-20T03:41:16;55.00;;;28.37;;
3259;SDS011;22469;48.150;14.004;2022-11-20T03:43:47;55.33;;;31.10;;
3259;SDS011;22469;48.150;14.004;2022-11-20T03:46:22;61.27;;;30.17;;
3259;SDS011;22469;48.150;14.004;2022-11-20T03:48:50;54.97;;;29.17;;
3259;SDS011;22469;48.150;14.004;2022-11-20T03:51:20;61.80;;;31.17;;
3259;SDS011;22469;48.150;14.004;2022-11-20T03:53:57;56.07;;;30.30;;
3259;SDS011;22469;48.150;14.004;2022-11-20T03:56:29;60.53;;;31.93;;
3259;SDS011;22469;48.150;14.004;2022-11-20T03:58:59;59.43;;;29.83;;
3259;SDS011;22469;48.150;14.004;2022-11-20T04:01:28;56.67;;;28.60;;
3259;SDS011;22469;48.150;14.004;2022-11-20T04:03:59;55.17;;;30.83;;
3259;SDS011;22469;48.150;14.004;2022-11-20T04:06:28;59.33;;;32.87;;
3259;SDS011;22469;48.150;14.004;2022-11-20T04:08:59;64.20;;;31.53;;
3259;SDS011;22469;48.150;14.004;2022-11-20T04:11:27;68.93;;;32.63;;
3259;SDS011;22469;48.150;14.004;2022-11-20T04:14:00;57.07;;;30.07;;
3259;SDS011;22469;48.150;14.004;2022-11-20T04:16:32;63.20;;;29.70;;
3259;SDS011;22469;48.150;14.004;2022-11-20T04:19:02;64.93;;;32.30;;
3259;SDS011;22469;48.150;14.004;2022-11-20T04:21:32;57.83;;;30.20;;
3259;SDS011;22469;48.150;14.004;2022-11-20T04:23:59;65.63;;;30.10;;
3259;SDS011;22469;48.150;14.004;2022-11-20T04:26:27;56.70;;;29.30;;
3259;SDS011;22469;48.150;14.004;2022-11-20T04:28:55;54.47;;;27.73;;
3259;SDS011;22469;48.150;14.004;2022-11-20T04:31:25;63.73;;;29.77;;
3259;SDS011;22469;48.150;14.004;2022-11-20T04:33:55;53.20;;;27.67;;
3259;SDS011;22469;48.150;14.004;2022-11-20T04:36:26;52.33;;;29.17;;
3259;SDS011;22469;48.150;14.004;2022-11-20T04:38:55;57.17;;;27.47;;
3259;SDS011;22469;48.150;14.004;2022-11-20T04:41:26;61.70;;;29.17;;
3259;SDS011;22469;48.150;14.004;2022-11-20T04:43:57;59.50;;;28.30;;
3259;SDS011;22469;48.150;14.004;2022-11-20T04:46:31;55.23;;;27.57;;
3259;SDS011;22469;48.150;14.004;2022-11-20T04:49:02;62.17;;;28.40;;
3259;SDS011;22469;48.150;14.004;2022-11-20T04:51:30;57.63;;;27.37;;
3259;SDS011;22469;48.150;14.004;2022-11-20T04:53:58;66.67;;;29.37;;
3259;SDS011;22469;48.150;14.004;2022-11-20T04:56:25;65.20;;;28.33;;
3259;SDS011;22469;48.150;14.004;2022-11-20T04:58:52;59.00;;;31.27;;
3259;SDS011;22469;48.150;14.004;2022-11-20T05:01:20;56.10;;;29.27;;
3259;SDS011;22469;48.150;14.004;2022-11-20T05:03:50;63.30;;;31.93;;
3259;SDS011;22469;48.150;14.004;2022-11-20T05:06:19;60.20;;;31.20;;
3259;SDS011;22469;48.150;14.004;2022-11-20T05:08:47;51.27;;;27.30;;
3259;SDS011;22469;48.150;14.004;2022-11-20T05:11:16;54.63;;;25.97;;
3259;SDS011;22469;48.150;14.004;2022-11-20T05:13:46;52.93;;;28.03;;
3259;SDS011;22469;48.150;14.004;2022-11-20T05:16:19;51.50;;;28.40;;
3259;SDS011;22469;48.150;14.004;2022-11-20T05:18:51;57.13;;;29.27;;
3259;SDS011;22469;48.150;14.004;2022-11-20T05:21:21;55.53;;;28.47;;
3259;SDS011;22469;48.150;14.004;2022-11-20T05:23:48;51.07;;;28.70;;
3259;SDS011;22469;48.150;14.004;2022-11-20T05:26:16;52.00;;;26.10;;
3259;SDS011;22469;48.150;14.004;2022-11-20T05:28:48;51.67;;;26.30;;
3259;SDS011;22469;48.150;14.004;2022-11-20T05:31:20;51.93;;;28.90;;
3259;SDS011;22469;48.150;14.004;2022-11-20T05:33:54;54.43;;;28.23;;
3259;SDS011;22469;48.150;14.004;2022-11-20T05:36:23;56.43;;;28.20;;
3259;SDS011;22469;48.150;14.004;2022-11-20T05:38:50;55.93;;;29.10;;
3259;SDS011;22469;48.150;14.004;2022-11-20T05:41:25;51.43;;;25.90;;
3259;SDS011;22469;48.150;14.004;2022-11-20T05:43:52;55.10;;;27.30;;
3259;SDS011;22469;48.150;14.004;2022-11-20T05:46:20;53.33;;;26.90;;
3259;SDS011;22469;48.150;14.004;2022-11-20T05:48:54;50.43;;;26.37;;
3259;SDS011;22469;48.150;14.004;2022-11-20T05:51:24;51.37;;;27.10;;
3259;SDS011;22469;48.150;14.004;2022-11-20T05:53:51;49.77;;;26.17;;
3259;SDS011;22469;48.150;14.004;2022-11-20T05:56:20;54.87;;;28.00;;
3259;SDS011;22469;48.150;14.004;2022-11-20T05:58:48;45.77;;;25.20;;
3259;SDS011;22469;48.150;14.004;2022-11-20T06:01:17;52.50;;;29.60;;
3259;SDS011;22469;48.150;14.004;2022-11-20T06:03:50;53.83;;;28.07;;
3259;SDS011;22469;48.150;14.004;2022-11-20T06:06:19;47.97;;;24.77;;
3259;SDS011;22469;48.150;14.004;2022-11-20T06:08:47;51.67;;;28.87;;
3259;SDS011;22469;48.150;14.004;2022-11-20T06:11:15;47.60;;;24.80;;
3259;SDS011;22469;48.150;14.004;2022-11-20T06:13:43;58.07;;;27.50;;
3259;SDS011;22469;48.150;14.004;2022-11-20T06:16:12;47.67;;;26.80;;
3259;SDS011;22469;48.150;14.004;2022-11-20T06:18:42;50.07;;;24.30;;
3259;SDS011;22469;48.150;14.004;2022-11-20T06:21:20;49.30;;;26.77;;
3259;SDS011;22469;48.150;14.004;2022-11-20T06:23:50;48.93;;;28.87;;
3259;SDS011;22469;48.150;14.004;2022-11-20T06:26:20;52.83;;;28.63;;
3259;SDS011;22469;48.150;14.004;2022-11-20T06:28:50;60.00;;;31.27;;
3259;SDS011;22469;48.150;14.004;2022-11-20T06:31:20;51.93;;;29.77;;
3259;SDS011;22469;48.150;14.004;2022-11-20T06:33:49;56.20;;;27.43;;
3259;SDS011;22469;48.150;14.004;2022-11-20T06:36:19;54.50;;;28.37;;
3259;SDS011;22469;48.150;14.004;2022-11-20T06:38:48;53.40;;;27.60;;
3259;SDS011;22469;48.150;14.004;2022-11-20T06:41:18;55.23;;;27.53;;
3259;SDS011;22469;48.150;14.004;2022-11-20T06:43:47;62.90;;;28.87;;
3259;SDS011;22469;48.150;14.004;2022-11-20T06:46:15;53.07;;;28.83;;
3259;SDS011;22469;48.150;14.004;2022-11-20T06:48:47;52.40;;;29.27;;
3259;SDS011;22469;48.150;14.004;2022-11-20T06:51:15;48.07;;;27.90;;
3259;SDS011;22469;48.150;14.004;2022-11-20T06:53:43;48.17;;;27.37;;
3259;SDS011;22469;48.150;14.004;2022-11-20T06:56:10;53.00;;;26.90;;
3259;SDS011;22469;48.150;14.004;2022-11-20T06:58:37;56.13;;;30.70;;
3259;SDS011;22469;48.150;14.004;2022-11-20T07:01:09;56.90;;;29.37;;
3259;SDS011;22469;48.150;14.004;2022-11-20T07:03:39;51.87;;;27.83;;
3259;SDS011;22469;48.150;14.004;2022-11-20T07:06:07;55.40;;;27.83;;
3259;SDS011;22469;48.150;14.004;2022-11-20T07:08:35;44.43;;;25.90;;
3259;SDS011;22469;48.150;14.004;2022-11-20T07:11:03;51.50;;;28.03;;
3259;SDS011;22469;48.150;14.004;2022-11-20T07:13:33;52.30;;;26.60;;
3259;SDS011;22469;48.150;14.004;2022-11-20T07:16:02;49.20;;;26.90;;
3259;SDS011;22469;48.150;14.004;2022-11-20T07:18:32;60.20;;;29.90;;
3259;SDS011;22469;48.150;14.004;2022-11-20T07:21:01;57.43;;;28.10;;
3259;SDS011;22469;48.150;14.004;2022-11-20T07:23:33;51.67;;;28.00;;
3259;SDS011;22469;48.150;14.004;2022-11-20T07:26:08;52.60;;;28.00;;
3259;SDS011;22469;48.150;14.004;2022-11-20T07:28:37;54.37;;;28.87;;
3259;SDS011;22469;48.150;14.004;2022-11-20T07:31:05;64.10;;;30.10;;
3259;SDS011;22469;48.150;14.004;2022-11-20T07:33:33;53.37;;;29.33;;
3259;SDS011;22469;48.150;14.004;2022-11-20T07:36:01;51.20;;;26.97;;
3259;SDS011;22469;48.150;14.004;2022-11-20T07:38:28;53.13;;;30.10;;
3259;SDS011;22469;48.150;14.004;2022-11-20T07:40:56;59.10;;;29.70;;
3259;SDS011;22469;48.150;14.004;2022-11-20T07:43:24;57.70;;;30.77;;
3259;SDS011;22469;48.150;14.004;2022-11-20T07:45:51;59.53;;;33.00;;
3259;SDS011;22469;48.150;14.004;2022-11-20T07:48:18;57.83;;;31.60;;
3259;SDS011;22469;48.150;14.004;2022-11-20T07:50:45;63.40;;;33.00;;
3259;SDS011;22469;48.150;14.004;2022-11-20T07:53:12;59.50;;;32.07;;
3259;SDS011;22469;48.150;14.004;2022-11-20T07:55:40;54.97;;;31.87;;
3259;SDS011;22469;48.150;14.004;2022-11-20T07:58:07;60.17;;;30.17;;
3259;SDS011;22469;48.150;14.004;2022-11-20T08:00:34;71.13;;;33.60;;
3259;SDS011;22469;48.150;14.004;2022-11-20T08:03:04;68.07;;;34.30;;
3259;SDS011;22469;48.150;14.004;2022-11-20T08:05:31;61.70;;;32.37;;
3259;SDS011;22469;48.150;14.004;2022-11-20T08:07:58;65.07;;;33.90;;
3259;SDS011;22469;48.150;14.004;2022-11-20T08:10:26;64.83;;;35.23;;
3259;SDS011;22469;48.150;14.004;2022-11-20T08:12:53;69.73;;;35.87;;
3259;SDS011;22469;48.150;14.004;2022-11-20T08:15:39;60.63;;;33.53;;
3259;SDS011;22469;48.150;14.004;2022-11-20T08:18:07;60.63;;;31.40;;
3259;SDS011;22469;48.150;14.004;2022-11-20T08:20:56;56.43;;;30.87;;
3259;SDS011;22469;48.150;14.004;2022-11-20T08:23:23;58.43;;;32.50;;
3259;SDS011;22469;48.150;14.004;2022-11-20T08:25:50;59.03;;;31.33;;
3259;SDS011;22469;48.150;14.004;2022-11-20T08:28:18;64.20;;;31.13;;
3259;SDS011;22469;48.150;14.004;2022-11-20T08:30:48;62.00;;;28.97;;
3259;SDS011;22469;48.150;14.004;2022-11-20T08:33:17;59.50;;;32.07;;
3259;SDS011;22469;48.150;14.004;2022-11-20T08:35:44;60.90;;;32.73;;
3259;SDS011;22469;48.150;14.004;2022-11-20T08:38:11;62.00;;;31.67;;
3259;SDS011;22469;48.150;14.004;2022-11-20T08:40:38;60.03;;;31.77;;
3259;SDS011;22469;48.150;14.004;2022-11-20T08:43:05;56.27;;;31.70;;
3259;SDS011;22469;48.150;14.004;2022-11-20T08:45:32;58.67;;;33.77;;
3259;SDS011;22469;48.150;14.004;2022-11-20T08:48:01;59.57;;;35.80;;
3259;SDS011;22469;48.150;14.004;2022-11-20T08:50:30;69.93;;;35.60;;
3259;SDS011;22469;48.150;14.004;2022-11-20T08:53:05;56.03;;;30.90;;
3259;SDS011;22469;48.150;14.004;2022-11-20T08:55:33;62.77;;;34.30;;
3259;SDS011;22469;48.150;14.004;2022-11-20T08:58:05;56.43;;;29.87;;
3259;SDS011;22469;48.150;14.004;2022-11-20T09:00:33;61.17;;;33.97;;
3259;SDS011;22469;48.150;14.004;2022-11-20T09:03:01;63.40;;;34.40;;
3259;SDS011;22469;48.150;14.004;2022-11-20T09:05:28;61.17;;;31.60;;
3259;SDS011;22469;48.150;14.004;2022-11-20T09:07:56;58.80;;;31.27;;
3259;SDS011;22469;48.150;14.004;2022-11-20T09:10:24;58.10;;;31.63;;
3259;SDS011;22469;48.150;14.004;2022-11-20T09:12:53;57.57;;;31.37;;
3259;SDS011;22469;48.150;14.004;2022-11-20T09:15:21;56.07;;;30.47;;
3259;SDS011;22469;48.150;14.004;2022-11-20T09:17:51;69.73;;;34.30;;
3259;SDS011;22469;48.150;14.004;2022-11-20T09:20:23;62.93;;;33.80;;
3259;SDS011;22469;48.150;14.004;2022-11-20T09:22:52;59.67;;;31.80;;
3259;SDS011;22469;48.150;14.004;2022-11-20T09:25:19;67.00;;;34.23;;
3259;SDS011;22469;48.150;14.004;2022-11-20T09:27:46;63.63;;;34.90;;
3259;SDS011;22469;48.150;14.004;2022-11-20T09:30:14;67.33;;;34.03;;
3259;SDS011;22469;48.150;14.004;2022-11-20T09:32:42;58.33;;;30.33;;
3259;SDS011;22469;48.150;14.004;2022-11-20T09:35:09;48.30;;;27.70;;
3259;SDS011;22469;48.150;14.004;2022-11-20T09:37:37;44.67;;;26.70;;
3259;SDS011;22469;48.150;14.004;2022-11-20T09:40:05;44.70;;;27.97;;
3259;SDS011;22469;48.150;14.004;2022-11-20T09:42:40;50.23;;;30.90;;
3259;SDS011;22469;48.150;14.004;2022-11-20T09:45:15;44.90;;;28.43;;
3259;SDS011;22469;48.150;14.004;2022-11-20T09:54:32;34.23;;;22.70;;
3259;SDS011;22469;48.150;14.004;2022-11-20T09:57:11;35.80;;;23.70;;
3259;SDS011;22469;48.150;14.004;2022-11-20T09:59:48;33.93;;;22.47;;
3259;SDS011;22469;48.150;14.004;2022-11-20T10:10:43;27.90;;;19.90;;
3259;SDS011;22469;48.150;14.004;2022-11-20T10:13:46;23.90;;;15.93;;
3259;SDS011;22469;48.150;14.004;2022-11-20T10:16:39;19.57;;;14.30;;
3259;SDS011;22469;48.150;14.004;2022-11-20T10:19:39;21.43;;;14.50;;
3259;SDS011;22469;48.150;14.004;2022-11-20T10:25:14;3.70;;;3.50;;
3259;SDS011;22469;48.150;14.004;2022-11-20T10:27:49;3.10;;;2.90;;
3259;SDS011;22469;48.150;14.004;2022-11-20T10:30:41;3.30;;;3.00;;
3259;SDS011;22469;48.150;14.004;2022-11-20T10:33:13;2.20;;;1.80;;
3259;SDS011;22469;48.150;14.004;2022-11-20T10:38:54;3.43;;;1.80;;
3259;SDS011;22469;48.150;14.004;2022-11-20T10:41:30;1.47;;;1.37;;
3259;SDS011;22469;48.150;14.004;2022-11-20T10:44:05;1.63;;;1.53;;
3259;SDS011;22469;48.150;14.004;2022-11-20T10:47:22;1.40;;;1.30;;
3259;SDS011;22469;48.150;14.004;2022-11-20T10:49:53;1.10;;;1.10;;
3259;SDS011;22469;48.150;14.004;2022-11-20T11:03:45;1.63;;;1.37;;
3259;SDS011;22469;48.150;14.004;2022-11-20T11:08:46;1.50;;;1.40;;
3259;SDS011;22469;48.150;14.004;2022-11-20T11:11:28;1.47;;;1.37;;
3259;SDS011;22469;48.150;14.004;2022-11-20T11:14:05;1.67;;;1.57;;
3259;SDS011;22469;48.150;14.004;2022-11-20T11:16:48;2.67;;;2.40;;
3259;SDS011;22469;48.150;14.004;2022-11-20T11:19:20;2.90;;;2.70;;
3259;SDS011;22469;48.150;14.004;2022-11-20T11:21:52;2.37;;;2.17;;
3259;SDS011;22469;48.150;14.004;2022-11-20T11:24:24;2.37;;;2.27;;
3259;SDS011;22469;48.150;14.004;2022-11-20T11:27:13;2.30;;;2.20;;
3259;SDS011;22469;48.150;14.004;2022-11-20T11:29:45;2.20;;;1.30;;
3259;SDS011;22469;48.150;14.004;2022-11-20T11:32:19;3.90;;;1.57;;
3259;SDS011;22469;48.150;14.004;2022-11-20T11:35:04;1.20;;;1.17;;
3259;SDS011;22469;48.150;14.004;2022-11-20T11:37:49;2.27;;;2.17;;
3259;SDS011;22469;48.150;14.004;2022-11-20T11:40:17;2.00;;;1.90;;
3259;SDS011;22469;48.150;14.004;2022-11-20T11:42:56;1.10;;;1.10;;
3259;SDS011;22469;48.150;14.004;2022-11-20T11:45:26;1.83;;;1.47;;
3259;SDS011;22469;48.150;14.004;2022-11-20T11:47:56;1.03;;;1.03;;
3259;SDS011;22469;48.150;14.004;2022-11-20T11:50:28;1.73;;;1.63;;
3259;SDS011;22469;48.150;14.004;2022-11-20T11:53:13;1.70;;;1.60;;
3259;SDS011;22469;48.150;14.004;2022-11-20T11:56:03;2.10;;;1.87;;
3259;SDS011;22469;48.150;14.004;2022-11-20T11:58:47;1.57;;;1.53;;
3259;SDS011;22469;48.150;14.004;2022-11-20T12:04:36;2.03;;;1.80;;
3259;SDS011;22469;48.150;14.004;2022-11-20T12:07:10;2.00;;;1.90;;
3259;SDS011;22469;48.150;14.004;2022-11-20T12:10:17;2.17;;;2.07;;
3259;SDS011;22469;48.150;14.004;2022-11-20T12:13:00;4.30;;;3.90;;
3259;SDS011;22469;48.150;14.004;2022-11-20T12:15:34;1.70;;;1.60;;
3259;SDS011;22469;48.150;14.004;2022-11-20T12:18:04;3.00;;;2.80;;
3259;SDS011;22469;48.150;14.004;2022-11-20T12:26:07;1.17;;;1.07;;
3259;SDS011;22469;48.150;14.004;2022-11-20T12:34:52;1.50;;;1.40;;
3259;SDS011;22469;48.150;14.004;2022-11-20T12:37:49;3.40;;;3.20;;
3259;SDS011;22469;48.150;14.004;2022-11-20T12:41:00;6.27;;;5.67;;
3259;SDS011;22469;48.150;14.004;2022-11-20T12:43:29;4.13;;;3.93;;
3259;SDS011;22469;48.150;14.004;2022-11-20T12:55:08;9.27;;;7.73;;
3259;SDS011;22469;48.150;14.004;2022-11-20T12:58:00;11.37;;;8.87;;
3259;SDS011;22469;48.150;14.004;2022-11-20T13:00:56;2.27;;;2.00;;
3259;SDS011;22469;48.150;14.004;2022-11-20T13:03:47;7.03;;;6.40;;
3259;SDS011;22469;48.150;14.004;2022-11-20T13:06:22;3.93;;;3.73;;
3259;SDS011;22469;48.150;14.004;2022-11-20T13:08:56;3.57;;;3.20;;
3259;SDS011;22469;48.150;14.004;2022-11-20T13:11:36;3.00;;;2.80;;
3259;SDS011;22469;48.150;14.004;2022-11-20T13:17:24;2.53;;;2.33;;
3259;SDS011;22469;48.150;14.004;2022-11-20T13:20:12;70.20;;;32.07;;
3259;SDS011;22469;48.150;14.004;2022-11-20T13:22:45;27.20;;;15.30;;
3259;SDS011;22469;48.150;14.004;2022-11-20T13:25:31;10.57;;;5.70;;
3259;SDS011;22469;48.150;14.004;2022-11-20T13:30:36;4.00;;;3.50;;
3259;SDS011;22469;48.150;14.004;2022-11-20T13:36:21;6.80;;;6.40;;
3259;SDS011;22469;48.150;14.004;2022-11-20T13:38:53;6.13;;;4.80;;
3259;SDS011;22469;48.150;14.004;2022-11-20T13:41:26;3.47;;;3.17;;
3259;SDS011;22469;48.150;14.004;2022-11-20T13:46:40;1.53;;;1.53;;
3259;SDS011;22469;48.150;14.004;2022-11-20T13:49:26;2.50;;;2.37;;
3259;SDS011;22469;48.150;14.004;2022-11-20T13:55:19;2.00;;;1.90;;
3259;SDS011;22469;48.150;14.004;2022-11-20T14:01:00;2.47;;;2.27;;
3259;SDS011;22469;48.150;14.004;2022-11-20T14:03:35;3.17;;;1.60;;
3259;SDS011;22469;48.150;14.004;2022-11-20T14:06:30;1.50;;;1.50;;
3259;SDS011;22469;48.150;14.004;2022-11-20T14:09:10;1.90;;;1.80;;
3259;SDS011;22469;48.150;14.004;2022-11-20T14:11:46;1.90;;;1.80;;
3259;SDS011;22469;48.150;14.004;2022-11-20T14:14:21;2.30;;;2.20;;
3259;SDS011;22469;48.150;14.004;2022-11-20T14:16:52;2.20;;;2.00;;
3259;SDS011;22469;48.150;14.004;2022-11-20T14:19:53;2.50;;;2.40;;
3259;SDS011;22469;48.150;14.004;2022-11-20T14:22:25;2.90;;;2.70;;
3259;SDS011;22469;48.150;14.004;2022-11-20T14:25:03;2.07;;;1.90;;
3259;SDS011;22469;48.150;14.004;2022-11-20T14:27:43;1.50;;;1.50;;
3259;SDS011;22469;48.150;14.004;2022-11-20T14:30:17;10.40;;;6.00;;
3259;SDS011;22469;48.150;14.004;2022-11-20T14:32:50;12.80;;;9.97;;
3259;SDS011;22469;48.150;14.004;2022-11-20T14:35:25;5.77;;;4.80;;
3259;SDS011;22469;48.150;14.004;2022-11-20T14:37:56;2.97;;;2.77;;
3259;SDS011;22469;48.150;14.004;2022-11-20T14:42:54;2.13;;;2.00;;
3259;SDS011;22469;48.150;14.004;2022-11-20T14:45:23;1.50;;;1.50;;
3259;SDS011;22469;48.150;14.004;2022-11-20T14:47:52;2.30;;;1.57;;
3259;SDS011;22469;48.150;14.004;2022-11-20T14:50:26;1.30;;;1.30;;
3259;SDS011;22469;48.150;14.004;2022-11-20T14:52:59;1.70;;;1.60;;
3259;SDS011;22469;48.150;14.004;2022-11-20T14:55:28;1.87;;;1.70;;
3259;SDS011;22469;48.150;14.004;2022-11-20T14:58:02;1.63;;;1.53;;
3259;SDS011;22469;48.150;14.004;2022-11-20T15:00:34;2.10;;;2.00;;
3259;SDS011;22469;48.150;14.004;2022-11-20T15:03:01;1.60;;;1.50;;
3259;SDS011;22469;48.150;14.004;2022-11-20T15:05:45;2.80;;;2.70;;
3259;SDS011;22469;48.150;14.004;2022-11-20T15:08:17;3.80;;;3.50;;
3259;SDS011;22469;48.150;14.004;2022-11-20T15:10:48;3.00;;;2.80;;
3259;SDS011;22469;48.150;14.004;2022-11-20T15:15:57;6.00;;;3.53;;
3259;SDS011;22469;48.150;14.004;2022-11-20T15:18:36;3.20;;;3.00;;
3259;SDS011;22469;48.150;14.004;2022-11-20T15:21:12;2.10;;;2.00;;
3259;SDS011;22469;48.150;14.004;2022-11-20T15:23:45;1.63;;;1.63;;
3259;SDS011;22469;48.150;14.004;2022-11-20T15:26:12;3.07;;;2.90;;
3259;SDS011;22469;48.150;14.004;2022-11-20T15:28:46;4.57;;;4.37;;
3259;SDS011;22469;48.150;14.004;2022-11-20T15:31:18;2.43;;;2.20;;
3259;SDS011;22469;48.150;14.004;2022-11-20T15:33:49;1.10;;;1.10;;
3259;SDS011;22469;48.150;14.004;2022-11-20T15:36:17;1.53;;;1.33;;
3259;SDS011;22469;48.150;14.004;2022-11-20T15:38:51;1.83;;;1.73;;
3259;SDS011;22469;48.150;14.004;2022-11-20T15:41:18;1.57;;;1.47;;
3259;SDS011;22469;48.150;14.004;2022-11-20T15:43:45;1.33;;;1.33;;
3259;SDS011;22469;48.150;14.004;2022-11-20T15:46:13;1.13;;;1.13;;
3259;SDS011;22469;48.150;14.004;2022-11-20T15:48:49;1.20;;;1.20;;
3259;SDS011;22469;48.150;14.004;2022-11-20T15:53:57;2.47;;;2.27;;
3259;SDS011;22469;48.150;14.004;2022-11-20T15:56:25;2.30;;;1.90;;
3259;SDS011;22469;48.150;14.004;2022-11-20T15:58:53;1.40;;;1.40;;
3259;SDS011;22469;48.150;14.004;2022-11-20T16:01:21;2.17;;;1.97;;
3259;SDS011;22469;48.150;14.004;2022-11-20T16:03:49;1.40;;;1.30;;
3259;SDS011;22469;48.150;14.004;2022-11-20T16:06:16;0.90;;;0.90;;
3259;SDS011;22469;48.150;14.004;2022-11-20T16:08:43;1.13;;;1.03;;
3259;SDS011;22469;48.150;14.004;2022-11-20T16:11:10;1.33;;;1.30;;
3259;SDS011;22469;48.150;14.004;2022-11-20T16:13:40;2.00;;;1.90;;
3259;SDS011;22469;48.150;14.004;2022-11-20T16:16:27;3.10;;;2.90;;
3259;SDS011;22469;48.150;14.004;2022-11-20T16:19:02;2.23;;;2.13;;
3259;SDS011;22469;48.150;14.004;2022-11-20T16:21:29;1.23;;;1.23;;
3259;SDS011;22469;48.150;14.004;2022-11-20T16:24:01;3.17;;;3.00;;
3259;SDS011;22469;48.150;14.004;2022-11-20T16:26:31;1.50;;;1.40;;
3259;SDS011;22469;48.150;14.004;2022-11-20T16:28:59;1.73;;;1.63;;
3259;SDS011;22469;48.150;14.004;2022-11-20T16:31:28;2.40;;;2.30;;